Mendenhall, Mississippi
Current Conditions -  °F | °C
As of 6:54 PM on Wednesday 17 Dec 2014 (Local Time) from KJAN Reporting Station
Broken Clouds Broken Clouds  
Wind Chill: 47°   Ceiling: 25000
Heat Index: 47°   Visibility: 10mi
Dew Point: 41°   Wind: 3mph
Humidity: 80%   Direction: 40°NE
Pressure: 30.2"   Gusts: NA
Location:  31.96°N, 89.87°W
Report Text: KJAN 180054Z 04003KT 10SM SCT100 BKN250 08/05 A3020 RMK AO2 SLP228 T00830050
Loading
Personal Weather Stations






























Interactive Weather Map New forecast layout! Learn more

10-Day Weather Forecast

Advertisements
Track Severe Weather on mobile